sensor_id;sensor_type;location;lat;lon;timestamp;temperature;humidity
61398;DHT22;47267;48.130;-2.040;2023-04-03T00:00:43;19.90;51.10
61398;DHT22;47267;48.130;-2.040;2023-04-03T00:03:09;19.90;51.10
61398;DHT22;47267;48.130;-2.040;2023-04-03T00:05:35;19.90;51.10
61398;DHT22;47267;48.130;-2.040;2023-04-03T00:08:01;19.90;51.10
61398;DHT22;47267;48.130;-2.040;2023-04-03T00:10:35;19.90;51.10
61398;DHT22;47267;48.130;-2.040;2023-04-03T00:13:05;19.90;51.10
61398;DHT22;47267;48.130;-2.040;2023-04-03T00:15:31;19.90;51.70
61398;DHT22;47267;48.130;-2.040;2023-04-03T00:17:59;19.90;51.10
61398;DHT22;47267;48.130;-2.040;2023-04-03T00:20:25;19.90;51.10
61398;DHT22;47267;48.130;-2.040;2023-04-03T00:22:56;19.90;51.10
61398;DHT22;47267;48.130;-2.040;2023-04-03T00:25:22;19.90;51.10
61398;DHT22;47267;48.130;-2.040;2023-04-03T00:27:48;19.80;51.00
61398;DHT22;47267;48.130;-2.040;2023-04-03T00:30:16;19.80;51.00
61398;DHT22;47267;48.130;-2.040;2023-04-03T00:32:43;19.90;51.10
61398;DHT22;47267;48.130;-2.040;2023-04-03T00:35:09;19.90;51.10
61398;DHT22;47267;48.130;-2.040;2023-04-03T00:37:35;19.90;51.10
61398;DHT22;47267;48.130;-2.040;2023-04-03T00:40:02;19.80;51.00
61398;DHT22;47267;48.130;-2.040;2023-04-03T00:42:28;19.80;51.00
61398;DHT22;47267;48.130;-2.040;2023-04-03T00:47:24;19.80;51.00
61398;DHT22;47267;48.130;-2.040;2023-04-03T00:49:52;19.80;51.00
61398;DHT22;47267;48.130;-2.040;2023-04-03T00:52:22;19.80;51.00
61398;DHT22;47267;48.130;-2.040;2023-04-03T00:54:53;19.80;51.00
61398;DHT22;47267;48.130;-2.040;2023-04-03T00:57:21;19.80;51.00
61398;DHT22;47267;48.130;-2.040;2023-04-03T00:59:51;19.80;51.00
61398;DHT22;47267;48.130;-2.040;2023-04-03T01:02:19;19.70;50.90
61398;DHT22;47267;48.130;-2.040;2023-04-03T01:04:48;19.70;50.90
61398;DHT22;47267;48.130;-2.040;2023-04-03T01:07:29;19.70;50.90
61398;DHT22;47267;48.130;-2.040;2023-04-03T01:09:59;19.70;50.90
61398;DHT22;47267;48.130;-2.040;2023-04-03T01:12:28;19.70;50.90
61398;DHT22;47267;48.130;-2.040;2023-04-03T01:14:59;19.70;50.90
61398;DHT22;47267;48.130;-2.040;2023-04-03T01:17:55;19.70;50.90
61398;DHT22;47267;48.130;-2.040;2023-04-03T01:25:51;19.70;50.90
61398;DHT22;47267;48.130;-2.040;2023-04-03T01:28:20;19.60;50.80
61398;DHT22;47267;48.130;-2.040;2023-04-03T01:30:53;19.60;50.80
61398;DHT22;47267;48.130;-2.040;2023-04-03T01:33:21;19.70;50.90
61398;DHT22;47267;48.130;-2.040;2023-04-03T01:35:49;19.60;50.80
61398;DHT22;47267;48.130;-2.040;2023-04-03T01:38:15;19.60;50.90
61398;DHT22;47267;48.130;-2.040;2023-04-03T01:40:44;19.60;50.80
61398;DHT22;47267;48.130;-2.040;2023-04-03T01:43:10;19.60;50.80
61398;DHT22;47267;48.130;-2.040;2023-04-03T01:45:36;19.60;50.80
61398;DHT22;47267;48.130;-2.040;2023-04-03T01:48:01;19.60;50.80
61398;DHT22;47267;48.130;-2.040;2023-04-03T01:50:30;19.60;50.80
61398;DHT22;47267;48.130;-2.040;2023-04-03T01:52:56;19.60;50.80
61398;DHT22;47267;48.130;-2.040;2023-04-03T01:55:22;19.60;50.80
61398;DHT22;47267;48.130;-2.040;2023-04-03T01:57:47;19.60;50.80
61398;DHT22;47267;48.130;-2.040;2023-04-03T02:00:13;19.60;50.80
61398;DHT22;47267;48.130;-2.040;2023-04-03T02:02:39;19.60;50.80
61398;DHT22;47267;48.130;-2.040;2023-04-03T02:05:06;19.50;50.80
61398;DHT22;47267;48.130;-2.040;2023-04-03T02:07:35;19.50;50.70
61398;DHT22;47267;48.130;-2.040;2023-04-03T02:10:01;19.50;50.70
61398;DHT22;47267;48.130;-2.040;2023-04-03T02:12:27;19.50;50.70
61398;DHT22;47267;48.130;-2.040;2023-04-03T02:14:53;19.50;50.70
61398;DHT22;47267;48.130;-2.040;2023-04-03T02:17:18;19.50;50.70
61398;DHT22;47267;48.130;-2.040;2023-04-03T02:19:44;19.50;51.30
61398;DHT22;47267;48.130;-2.040;2023-04-03T02:22:10;19.50;50.70
61398;DHT22;47267;48.130;-2.040;2023-04-03T02:24:38;19.50;50.80
61398;DHT22;47267;48.130;-2.040;2023-04-03T02:27:05;19.50;50.70
61398;DHT22;47267;48.130;-2.040;2023-04-03T02:29:31;19.40;50.70
61398;DHT22;47267;48.130;-2.040;2023-04-03T02:31:57;19.40;50.70
61398;DHT22;47267;48.130;-2.040;2023-04-03T02:34:22;19.40;50.60
61398;DHT22;47267;48.130;-2.040;2023-04-03T02:36:48;19.40;50.60
61398;DHT22;47267;48.130;-2.040;2023-04-03T02:39:14;19.40;50.60
61398;DHT22;47267;48.130;-2.040;2023-04-03T02:41:42;19.40;50.70
61398;DHT22;47267;48.130;-2.040;2023-04-03T02:44:10;19.40;50.60
61398;DHT22;47267;48.130;-2.040;2023-04-03T02:46:36;19.40;50.60
61398;DHT22;47267;48.130;-2.040;2023-04-03T02:49:02;19.40;50.70
61398;DHT22;47267;48.130;-2.040;2023-04-03T02:51:28;19.40;50.60
61398;DHT22;47267;48.130;-2.040;2023-04-03T02:53:54;19.40;50.60
61398;DHT22;47267;48.130;-2.040;2023-04-03T02:56:20;19.40;50.60
61398;DHT22;47267;48.130;-2.040;2023-04-03T02:58:48;19.30;50.60
61398;DHT22;47267;48.130;-2.040;2023-04-03T03:01:14;19.40;50.60
61398;DHT22;47267;48.130;-2.040;2023-04-03T03:03:40;19.30;50.60
61398;DHT22;47267;48.130;-2.040;2023-04-03T03:06:11;19.30;50.60
61398;DHT22;47267;48.130;-2.040;2023-04-03T03:08:43;19.30;50.60
61398;DHT22;47267;48.130;-2.040;2023-04-03T03:11:10;19.30;50.60
61398;DHT22;47267;48.130;-2.040;2023-04-03T03:13:36;19.30;50.60
61398;DHT22;47267;48.130;-2.040;2023-04-03T03:16:02;19.30;50.50
61398;DHT22;47267;48.130;-2.040;2023-04-03T03:18:28;19.30;50.60
61398;DHT22;47267;48.130;-2.040;2023-04-03T03:20:59;19.20;50.60
61398;DHT22;47267;48.130;-2.040;2023-04-03T03:23:26;19.30;50.60
61398;DHT22;47267;48.130;-2.040;2023-04-03T03:26:00;19.30;50.50
61398;DHT22;47267;48.130;-2.040;2023-04-03T03:28:27;19.20;50.50
61398;DHT22;47267;48.130;-2.040;2023-04-03T03:30:53;19.20;50.50
61398;DHT22;47267;48.130;-2.040;2023-04-03T03:33:19;19.20;50.50
61398;DHT22;47267;48.130;-2.040;2023-04-03T03:35:45;19.20;50.50
61398;DHT22;47267;48.130;-2.040;2023-04-03T03:38:11;19.20;50.50
61398;DHT22;47267;48.130;-2.040;2023-04-03T03:40:37;19.20;50.50
61398;DHT22;47267;48.130;-2.040;2023-04-03T03:43:03;19.20;50.50
61398;DHT22;47267;48.130;-2.040;2023-04-03T03:45:28;19.20;50.50
61398;DHT22;47267;48.130;-2.040;2023-04-03T03:47:54;19.20;50.50
61398;DHT22;47267;48.130;-2.040;2023-04-03T03:50:20;19.20;50.50
61398;DHT22;47267;48.130;-2.040;2023-04-03T03:52:46;19.20;50.50
61398;DHT22;47267;48.130;-2.040;2023-04-03T03:55:12;19.20;50.50
61398;DHT22;47267;48.130;-2.040;2023-04-03T03:57:38;19.20;50.50
61398;DHT22;47267;48.130;-2.040;2023-04-03T04:00:04;19.20;50.50
61398;DHT22;47267;48.130;-2.040;2023-04-03T04:02:30;19.20;50.50
61398;DHT22;47267;48.130;-2.040;2023-04-03T04:04:56;19.20;50.50
61398;DHT22;47267;48.130;-2.040;2023-04-03T04:07:22;19.10;51.00
61398;DHT22;47267;48.130;-2.040;2023-04-03T04:09:47;19.10;50.40
61398;DHT22;47267;48.130;-2.040;2023-04-03T04:12:13;19.10;50.50
61398;DHT22;47267;48.130;-2.040;2023-04-03T04:14:39;19.20;50.40
61398;DHT22;47267;48.130;-2.040;2023-04-03T04:17:05;19.10;50.40
61398;DHT22;47267;48.130;-2.040;2023-04-03T04:19:31;19.10;50.40
61398;DHT22;47267;48.130;-2.040;2023-04-03T04:21:56;19.10;50.40
61398;DHT22;47267;48.130;-2.040;2023-04-03T04:24:22;19.10;50.40
61398;DHT22;47267;48.130;-2.040;2023-04-03T04:26:51;19.10;50.40
61398;DHT22;47267;48.130;-2.040;2023-04-03T04:29:16;19.10;50.40
61398;DHT22;47267;48.130;-2.040;2023-04-03T04:31:42;19.10;50.40
61398;DHT22;47267;48.130;-2.040;2023-04-03T04:34:08;19.10;50.40
61398;DHT22;47267;48.130;-2.040;2023-04-03T04:36:33;19.10;50.40
61398;DHT22;47267;48.130;-2.040;2023-04-03T04:38:59;19.10;50.40
61398;DHT22;47267;48.130;-2.040;2023-04-03T04:41:25;19.10;50.40
61398;DHT22;47267;48.130;-2.040;2023-04-03T04:43:51;19.00;50.30
61398;DHT22;47267;48.130;-2.040;2023-04-03T04:46:18;19.00;50.30
61398;DHT22;47267;48.130;-2.040;2023-04-03T04:48:44;19.00;50.30
61398;DHT22;47267;48.130;-2.040;2023-04-03T04:51:10;19.00;50.30
61398;DHT22;47267;48.130;-2.040;2023-04-03T04:53:36;19.00;50.30
61398;DHT22;47267;48.130;-2.040;2023-04-03T04:56:02;19.00;50.30
61398;DHT22;47267;48.130;-2.040;2023-04-03T04:58:28;19.00;50.90
61398;DHT22;47267;48.130;-2.040;2023-04-03T05:01:01;19.00;50.30
61398;DHT22;47267;48.130;-2.040;2023-04-03T05:03:28;19.00;50.30
61398;DHT22;47267;48.130;-2.040;2023-04-03T05:05:53;19.00;50.30
61398;DHT22;47267;48.130;-2.040;2023-04-03T05:08:20;19.00;50.30
61398;DHT22;47267;48.130;-2.040;2023-04-03T05:10:46;19.00;50.30
61398;DHT22;47267;48.130;-2.040;2023-04-03T05:13:12;19.00;50.30
61398;DHT22;47267;48.130;-2.040;2023-04-03T05:15:41;19.00;50.30
61398;DHT22;47267;48.130;-2.040;2023-04-03T05:18:07;19.00;50.30
61398;DHT22;47267;48.130;-2.040;2023-04-03T05:20:34;19.00;50.30
61398;DHT22;47267;48.130;-2.040;2023-04-03T05:23:01;19.00;50.30
61398;DHT22;47267;48.130;-2.040;2023-04-03T05:25:27;19.00;50.30
61398;DHT22;47267;48.130;-2.040;2023-04-03T05:27:52;19.00;50.30
61398;DHT22;47267;48.130;-2.040;2023-04-03T05:30:18;19.00;50.30
61398;DHT22;47267;48.130;-2.040;2023-04-03T05:32:44;19.00;50.30
61398;DHT22;47267;48.130;-2.040;2023-04-03T05:35:10;19.00;50.30
61398;DHT22;47267;48.130;-2.040;2023-04-03T05:37:36;19.00;50.30
61398;DHT22;47267;48.130;-2.040;2023-04-03T05:40:04;19.00;50.30
61398;DHT22;47267;48.130;-2.040;2023-04-03T05:42:29;19.00;50.30
61398;DHT22;47267;48.130;-2.040;2023-04-03T05:44:55;19.00;50.20
61398;DHT22;47267;48.130;-2.040;2023-04-03T05:47:21;19.00;50.20
61398;DHT22;47267;48.130;-2.040;2023-04-03T05:49:49;19.00;50.20
61398;DHT22;47267;48.130;-2.040;2023-04-03T05:52:25;19.00;50.30
61398;DHT22;47267;48.130;-2.040;2023-04-03T05:54:54;19.00;50.20
61398;DHT22;47267;48.130;-2.040;2023-04-03T05:57:20;19.00;50.20
61398;DHT22;47267;48.130;-2.040;2023-04-03T05:59:46;19.00;50.30
61398;DHT22;47267;48.130;-2.040;2023-04-03T06:02:17;19.00;50.30
61398;DHT22;47267;48.130;-2.040;2023-04-03T06:04:44;19.00;50.30
61398;DHT22;47267;48.130;-2.040;2023-04-03T06:07:15;19.00;50.30
61398;DHT22;47267;48.130;-2.040;2023-04-03T06:09:42;19.00;50.30
61398;DHT22;47267;48.130;-2.040;2023-04-03T06:12:08;19.00;50.30
61398;DHT22;47267;48.130;-2.040;2023-04-03T06:14:34;19.00;50.30
61398;DHT22;47267;48.130;-2.040;2023-04-03T06:17:00;19.00;50.30
61398;DHT22;47267;48.130;-2.040;2023-04-03T06:19:30;19.00;50.30
61398;DHT22;47267;48.130;-2.040;2023-04-03T06:21:55;19.00;50.30
61398;DHT22;47267;48.130;-2.040;2023-04-03T06:24:22;19.00;50.30
61398;DHT22;47267;48.130;-2.040;2023-04-03T06:26:49;19.00;50.30
61398;DHT22;47267;48.130;-2.040;2023-04-03T06:29:17;19.00;50.30
61398;DHT22;47267;48.130;-2.040;2023-04-03T06:31:46;19.00;50.30
61398;DHT22;47267;48.130;-2.040;2023-04-03T06:34:13;19.00;50.30
61398;DHT22;47267;48.130;-2.040;2023-04-03T06:36:39;19.00;50.30
61398;DHT22;47267;48.130;-2.040;2023-04-03T06:39:05;19.00;50.30
61398;DHT22;47267;48.130;-2.040;2023-04-03T06:41:30;19.00;50.30
61398;DHT22;47267;48.130;-2.040;2023-04-03T06:43:56;19.00;50.30
61398;DHT22;47267;48.130;-2.040;2023-04-03T06:46:25;19.00;50.40
61398;DHT22;47267;48.130;-2.040;2023-04-03T06:48:52;19.00;50.40
61398;DHT22;47267;48.130;-2.040;2023-04-03T06:51:24;19.00;50.40
61398;DHT22;47267;48.130;-2.040;2023-04-03T06:53:51;19.00;50.40
61398;DHT22;47267;48.130;-2.040;2023-04-03T06:56:18;19.00;50.40
61398;DHT22;47267;48.130;-2.040;2023-04-03T06:58:48;19.00;50.40
61398;DHT22;47267;48.130;-2.040;2023-04-03T07:01:15;19.00;50.60
61398;DHT22;47267;48.130;-2.040;2023-04-03T07:03:41;19.00;50.50
61398;DHT22;47267;48.130;-2.040;2023-04-03T07:06:09;19.10;50.50
61398;DHT22;47267;48.130;-2.040;2023-04-03T07:08:39;19.10;50.50
61398;DHT22;47267;48.130;-2.040;2023-04-03T07:11:06;19.10;50.50
61398;DHT22;47267;48.130;-2.040;2023-04-03T07:13:32;19.10;50.50
61398;DHT22;47267;48.130;-2.040;2023-04-03T07:15:58;19.10;50.50
61398;DHT22;47267;48.130;-2.040;2023-04-03T07:18:25;19.10;50.60
61398;DHT22;47267;48.130;-2.040;2023-04-03T07:20:51;19.10;50.60
61398;DHT22;47267;48.130;-2.040;2023-04-03T07:23:17;19.10;50.60
61398;DHT22;47267;48.130;-2.040;2023-04-03T07:25:47;19.10;50.60
61398;DHT22;47267;48.130;-2.040;2023-04-03T07:28:14;19.20;50.60
61398;DHT22;47267;48.130;-2.040;2023-04-03T07:30:52;19.20;50.60
61398;DHT22;47267;48.130;-2.040;2023-04-03T07:33:19;19.20;50.70
61398;DHT22;47267;48.130;-2.040;2023-04-03T07:35:45;19.20;50.70
61398;DHT22;47267;48.130;-2.040;2023-04-03T07:38:11;19.20;50.70
61398;DHT22;47267;48.130;-2.040;2023-04-03T07:40:38;19.20;50.70
61398;DHT22;47267;48.130;-2.040;2023-04-03T07:43:04;19.20;50.70
61398;DHT22;47267;48.130;-2.040;2023-04-03T07:45:31;19.20;50.70
61398;DHT22;47267;48.130;-2.040;2023-04-03T07:47:57;19.20;50.80
61398;DHT22;47267;48.130;-2.040;2023-04-03T07:50:23;19.20;50.70
61398;DHT22;47267;48.130;-2.040;2023-04-03T07:52:49;19.30;50.80
61398;DHT22;47267;48.130;-2.040;2023-04-03T07:55:16;19.30;50.80
61398;DHT22;47267;48.130;-2.040;2023-04-03T07:57:42;19.30;50.80
61398;DHT22;47267;48.130;-2.040;2023-04-03T08:00:08;19.30;50.80
61398;DHT22;47267;48.130;-2.040;2023-04-03T08:02:35;19.30;50.80
61398;DHT22;47267;48.130;-2.040;2023-04-03T08:05:01;19.30;50.80
61398;DHT22;47267;48.130;-2.040;2023-04-03T08:07:27;19.40;50.90
61398;DHT22;47267;48.130;-2.040;2023-04-03T08:09:52;19.40;50.90
61398;DHT22;47267;48.130;-2.040;2023-04-03T08:12:18;19.40;50.90
61398;DHT22;47267;48.130;-2.040;2023-04-03T08:14:44;19.40;50.90
61398;DHT22;47267;48.130;-2.040;2023-04-03T08:17:10;19.40;50.90
61398;DHT22;47267;48.130;-2.040;2023-04-03T08:19:38;19.40;50.90
61398;DHT22;47267;48.130;-2.040;2023-04-03T08:22:04;19.40;50.90
61398;DHT22;47267;48.130;-2.040;2023-04-03T08:24:31;19.40;51.50
61398;DHT22;47267;48.130;-2.040;2023-04-03T08:26:57;19.40;50.90
61398;DHT22;47267;48.130;-2.040;2023-04-03T08:29:23;19.40;50.90
61398;DHT22;47267;48.130;-2.040;2023-04-03T08:31:49;19.40;50.90
61398;DHT22;47267;48.130;-2.040;2023-04-03T08:34:16;19.50;50.90
61398;DHT22;47267;48.130;-2.040;2023-04-03T08:36:42;19.50;50.90
61398;DHT22;47267;48.130;-2.040;2023-04-03T08:39:08;19.50;50.90
61398;DHT22;47267;48.130;-2.040;2023-04-03T08:41:39;19.50;50.90
61398;DHT22;47267;48.130;-2.040;2023-04-03T08:49:40;19.50;50.90
61398;DHT22;47267;48.130;-2.040;2023-04-03T08:52:15;19.50;51.00
61398;DHT22;47267;48.130;-2.040;2023-04-03T08:54:55;19.50;51.00
61398;DHT22;47267;48.130;-2.040;2023-04-03T08:57:34;19.60;51.00
61398;DHT22;47267;48.130;-2.040;2023-04-03T09:00:09;19.60;51.00
61398;DHT22;47267;48.130;-2.040;2023-04-03T09:02:45;19.60;51.20
61398;DHT22;47267;48.130;-2.040;2023-04-03T09:05:34;19.60;51.00
61398;DHT22;47267;48.130;-2.040;2023-04-03T09:08:22;19.60;51.00
61398;DHT22;47267;48.130;-2.040;2023-04-03T09:11:09;19.60;51.00
61398;DHT22;47267;48.130;-2.040;2023-04-03T09:19:23;19.60;51.00
61398;DHT22;47267;48.130;-2.040;2023-04-03T09:21:52;19.60;51.00
61398;DHT22;47267;48.130;-2.040;2023-04-03T09:24:18;19.60;51.00
61398;DHT22;47267;48.130;-2.040;2023-04-03T09:27:04;19.60;51.00
61398;DHT22;47267;48.130;-2.040;2023-04-03T09:29:35;19.60;51.00
61398;DHT22;47267;48.130;-2.040;2023-04-03T09:32:33;19.60;51.00
61398;DHT22;47267;48.130;-2.040;2023-04-03T09:35:06;19.70;51.10
61398;DHT22;47267;48.130;-2.040;2023-04-03T09:37:51;19.70;51.10
61398;DHT22;47267;48.130;-2.040;2023-04-03T09:40:35;19.70;51.10
61398;DHT22;47267;48.130;-2.040;2023-04-03T09:43:16;19.70;51.10
61398;DHT22;47267;48.130;-2.040;2023-04-03T09:45:45;19.70;51.60
61398;DHT22;47267;48.130;-2.040;2023-04-03T09:53:37;19.70;51.00
61398;DHT22;47267;48.130;-2.040;2023-04-03T09:58:44;19.70;51.10
61398;DHT22;47267;48.130;-2.040;2023-04-03T10:01:29;19.80;51.10
61398;DHT22;47267;48.130;-2.040;2023-04-03T10:04:18;19.70;51.00
61398;DHT22;47267;48.130;-2.040;2023-04-03T10:06:49;19.80;51.10
61398;DHT22;47267;48.130;-2.040;2023-04-03T10:12:06;19.70;51.00
61398;DHT22;47267;48.130;-2.040;2023-04-03T10:31:24;19.80;51.10
61398;DHT22;47267;48.130;-2.040;2023-04-03T10:47:51;19.90;51.00
61398;DHT22;47267;48.130;-2.040;2023-04-03T10:50:48;19.90;51.00
61398;DHT22;47267;48.130;-2.040;2023-04-03T10:53:42;19.90;51.00
61398;DHT22;47267;48.130;-2.040;2023-04-03T10:58:50;19.90;51.00
61398;DHT22;47267;48.130;-2.040;2023-04-03T11:01:33;19.90;51.00
61398;DHT22;47267;48.130;-2.040;2023-04-03T11:04:02;19.90;51.00
61398;DHT22;47267;48.130;-2.040;2023-04-03T11:06:47;19.90;51.00
61398;DHT22;47267;48.130;-2.040;2023-04-03T11:09:23;19.90;51.00
61398;DHT22;47267;48.130;-2.040;2023-04-03T11:11:55;19.90;51.10
61398;DHT22;47267;48.130;-2.040;2023-04-03T11:14:29;19.90;51.00
61398;DHT22;47267;48.130;-2.040;2023-04-03T11:17:09;19.90;51.00
61398;DHT22;47267;48.130;-2.040;2023-04-03T11:19:39;19.90;51.00
61398;DHT22;47267;48.130;-2.040;2023-04-03T11:22:25;19.90;51.00
61398;DHT22;47267;48.130;-2.040;2023-04-03T11:28:00;19.90;50.90
61398;DHT22;47267;48.130;-2.040;2023-04-03T11:30:51;19.90;50.90
61398;DHT22;47267;48.130;-2.040;2023-04-03T11:33:34;19.90;50.90
61398;DHT22;47267;48.130;-2.040;2023-04-03T11:36:09;19.90;50.90
61398;DHT22;47267;48.130;-2.040;2023-04-03T11:38:42;19.90;50.90
61398;DHT22;47267;48.130;-2.040;2023-04-03T11:41:10;19.90;50.90
61398;DHT22;47267;48.130;-2.040;2023-04-03T11:43:42;19.90;50.90
61398;DHT22;47267;48.130;-2.040;2023-04-03T11:46:09;19.90;50.90
61398;DHT22;47267;48.130;-2.040;2023-04-03T11:51:01;19.90;50.90
61398;DHT22;47267;48.130;-2.040;2023-04-03T11:53:34;19.90;51.50
61398;DHT22;47267;48.130;-2.040;2023-04-03T12:04:12;19.90;50.90
61398;DHT22;47267;48.130;-2.040;2023-04-03T12:11:53;19.90;50.90
61398;DHT22;47267;48.130;-2.040;2023-04-03T12:14:22;19.90;50.90
61398;DHT22;47267;48.130;-2.040;2023-04-03T12:16:50;20.00;51.00
61398;DHT22;47267;48.130;-2.040;2023-04-03T12:48:58;20.00;51.00
61398;DHT22;47267;48.130;-2.040;2023-04-03T12:51:37;20.00;51.00
61398;DHT22;47267;48.130;-2.040;2023-04-03T12:54:32;20.10;51.10
61398;DHT22;47267;48.130;-2.040;2023-04-03T12:57:18;20.10;51.00
61398;DHT22;47267;48.130;-2.040;2023-04-03T12:59:44;20.10;51.00
61398;DHT22;47267;48.130;-2.040;2023-04-03T13:02:30;20.10;51.00
61398;DHT22;47267;48.130;-2.040;2023-04-03T13:05:08;20.10;51.00
61398;DHT22;47267;48.130;-2.040;2023-04-03T13:07:38;20.10;51.00
61398;DHT22;47267;48.130;-2.040;2023-04-03T13:12:45;20.10;51.00
61398;DHT22;47267;48.130;-2.040;2023-04-03T13:15:29;20.20;51.10
61398;DHT22;47267;48.130;-2.040;2023-04-03T13:17:55;20.20;51.00
61398;DHT22;47267;48.130;-2.040;2023-04-03T13:20:28;20.20;51.10
61398;DHT22;47267;48.130;-2.040;2023-04-03T13:23:07;20.20;51.10
61398;DHT22;47267;48.130;-2.040;2023-04-03T13:25:37;20.20;51.00
61398;DHT22;47267;48.130;-2.040;2023-04-03T13:28:07;20.20;51.10
61398;DHT22;47267;48.130;-2.040;2023-04-03T13:30:38;20.20;51.00
61398;DHT22;47267;48.130;-2.040;2023-04-03T13:33:18;20.20;51.00
61398;DHT22;47267;48.130;-2.040;2023-04-03T13:35:44;20.20;51.00
61398;DHT22;47267;48.130;-2.040;2023-04-03T13:38:22;20.20;51.00
61398;DHT22;47267;48.130;-2.040;2023-04-03T13:40:49;20.30;51.10
61398;DHT22;47267;48.130;-2.040;2023-04-03T13:43:24;20.30;51.10
61398;DHT22;47267;48.130;-2.040;2023-04-03T13:46:20;20.30;51.10
61398;DHT22;47267;48.130;-2.040;2023-04-03T13:48:49;20.30;51.10
61398;DHT22;47267;48.130;-2.040;2023-04-03T13:51:25;20.30;51.20
61398;DHT22;47267;48.130;-2.040;2023-04-03T13:53:53;20.30;51.10
61398;DHT22;47267;48.130;-2.040;2023-04-03T13:56:21;20.30;51.10
61398;DHT22;47267;48.130;-2.040;2023-04-03T14:01:22;20.30;51.10
61398;DHT22;47267;48.130;-2.040;2023-04-03T14:03:57;20.30;51.10
61398;DHT22;47267;48.130;-2.040;2023-04-03T14:06:25;20.30;51.10
61398;DHT22;47267;48.130;-2.040;2023-04-03T14:08:52;20.40;51.10
61398;DHT22;47267;48.130;-2.040;2023-04-03T14:11:22;20.30;51.10
61398;DHT22;47267;48.130;-2.040;2023-04-03T14:13:49;20.40;51.20
61398;DHT22;47267;48.130;-2.040;2023-04-03T14:16:18;20.40;51.20
61398;DHT22;47267;48.130;-2.040;2023-04-03T14:18:46;20.40;51.20
61398;DHT22;47267;48.130;-2.040;2023-04-03T14:21:14;20.40;51.10
61398;DHT22;47267;48.130;-2.040;2023-04-03T14:23:40;20.40;51.10
61398;DHT22;47267;48.130;-2.040;2023-04-03T14:26:16;20.40;51.20
61398;DHT22;47267;48.130;-2.040;2023-04-03T14:28:47;20.40;51.20
61398;DHT22;47267;48.130;-2.040;2023-04-03T14:31:14;20.50;51.20
61398;DHT22;47267;48.130;-2.040;2023-04-03T14:33:41;20.50;51.20
61398;DHT22;47267;48.130;-2.040;2023-04-03T14:36:14;20.40;51.20
61398;DHT22;47267;48.130;-2.040;2023-04-03T14:38:40;20.40;51.10
61398;DHT22;47267;48.130;-2.040;2023-04-03T14:41:06;20.50;51.10
61398;DHT22;47267;48.130;-2.040;2023-04-03T14:43:32;20.50;51.20
61398;DHT22;47267;48.130;-2.040;2023-04-03T14:45:58;20.50;51.20
61398;DHT22;47267;48.130;-2.040;2023-04-03T14:48:26;20.50;51.10
61398;DHT22;47267;48.130;-2.040;2023-04-03T14:50:53;20.50;51.20
61398;DHT22;47267;48.130;-2.040;2023-04-03T14:53:19;20.50;51.10
61398;DHT22;47267;48.130;-2.040;2023-04-03T14:55:49;20.50;51.10
61398;DHT22;47267;48.130;-2.040;2023-04-03T14:58:17;20.50;51.10
61398;DHT22;47267;48.130;-2.040;2023-04-03T15:00:44;20.60;51.20
61398;DHT22;47267;48.130;-2.040;2023-04-03T15:03:17;20.60;51.20
61398;DHT22;47267;48.130;-2.040;2023-04-03T15:05:44;20.60;51.20
61398;DHT22;47267;48.130;-2.040;2023-04-03T15:08:24;20.60;51.20
61398;DHT22;47267;48.130;-2.040;2023-04-03T15:10:52;20.60;51.20
61398;DHT22;47267;48.130;-2.040;2023-04-03T15:13:19;20.60;51.20
61398;DHT22;47267;48.130;-2.040;2023-04-03T15:15:46;20.60;51.10
61398;DHT22;47267;48.130;-2.040;2023-04-03T15:18:35;20.70;51.20
61398;DHT22;47267;48.130;-2.040;2023-04-03T15:21:02;20.70;51.20
61398;DHT22;47267;48.130;-2.040;2023-04-03T15:23:27;20.70;51.20
61398;DHT22;47267;48.130;-2.040;2023-04-03T15:25:58;20.70;51.20
61398;DHT22;47267;48.130;-2.040;2023-04-03T15:28:34;20.70;51.20
61398;DHT22;47267;48.130;-2.040;2023-04-03T15:31:01;20.70;51.10
61398;DHT22;47267;48.130;-2.040;2023-04-03T15:33:30;20.70;51.10
61398;DHT22;47267;48.130;-2.040;2023-04-03T15:35:56;20.70;51.20
61398;DHT22;47267;48.130;-2.040;2023-04-03T15:38:22;20.70;51.10
61398;DHT22;47267;48.130;-2.040;2023-04-03T15:40:47;20.80;51.20
61398;DHT22;47267;48.130;-2.040;2023-04-03T15:43:14;20.80;51.20
61398;DHT22;47267;48.130;-2.040;2023-04-03T15:45:40;20.80;51.20
61398;DHT22;47267;48.130;-2.040;2023-04-03T15:48:06;20.80;51.20
61398;DHT22;47267;48.130;-2.040;2023-04-03T15:50:33;20.80;51.10
61398;DHT22;47267;48.130;-2.040;2023-04-03T15:53:00;20.80;51.10
61398;DHT22;47267;48.130;-2.040;2023-04-03T15:55:31;20.80;51.10
61398;DHT22;47267;48.130;-2.040;2023-04-03T15:57:57;20.80;51.10
61398;DHT22;47267;48.130;-2.040;2023-04-03T16:00:24;20.80;51.10
61398;DHT22;47267;48.130;-2.040;2023-04-03T16:02:58;20.80;51.10
61398;DHT22;47267;48.130;-2.040;2023-04-03T16:05:25;20.80;51.10
61398;DHT22;47267;48.130;-2.040;2023-04-03T16:07:51;20.80;51.10
61398;DHT22;47267;48.130;-2.040;2023-04-03T16:10:18;20.90;51.10
61398;DHT22;47267;48.130;-2.040;2023-04-03T16:12:44;20.90;51.10
61398;DHT22;47267;48.130;-2.040;2023-04-03T16:15:11;20.90;51.10
61398;DHT22;47267;48.130;-2.040;2023-04-03T16:17:38;20.90;50.90
61398;DHT22;47267;48.130;-2.040;2023-04-03T16:20:07;20.90;51.00
61398;DHT22;47267;48.130;-2.040;2023-04-03T16:22:33;20.90;51.10
61398;DHT22;47267;48.130;-2.040;2023-04-03T16:24:59;20.90;51.00
61398;DHT22;47267;48.130;-2.040;2023-04-03T16:27:25;20.90;51.00
61398;DHT22;47267;48.130;-2.040;2023-04-03T16:29:54;20.90;51.00
61398;DHT22;47267;48.130;-2.040;2023-04-03T16:32:26;20.90;50.90
61398;DHT22;47267;48.130;-2.040;2023-04-03T16:34:52;20.90;50.90
61398;DHT22;47267;48.130;-2.040;2023-04-03T16:37:18;20.90;50.90
61398;DHT22;47267;48.130;-2.040;2023-04-03T16:39:44;20.90;50.90
61398;DHT22;47267;48.130;-2.040;2023-04-03T16:42:10;20.90;50.90
61398;DHT22;47267;48.130;-2.040;2023-04-03T16:44:36;20.90;50.90
61398;DHT22;47267;48.130;-2.040;2023-04-03T16:47:03;20.90;50.90
61398;DHT22;47267;48.130;-2.040;2023-04-03T16:49:29;20.90;50.80
61398;DHT22;47267;48.130;-2.040;2023-04-03T16:51:58;20.90;50.80
61398;DHT22;47267;48.130;-2.040;2023-04-03T16:54:24;21.00;50.90
61398;DHT22;47267;48.130;-2.040;2023-04-03T16:56:50;20.90;50.80
61398;DHT22;47267;48.130;-2.040;2023-04-03T16:59:16;20.90;50.80
61398;DHT22;47267;48.130;-2.040;2023-04-03T17:01:42;21.00;50.80
61398;DHT22;47267;48.130;-2.040;2023-04-03T17:04:08;21.00;50.90
61398;DHT22;47267;48.130;-2.040;2023-04-03T17:06:34;21.00;50.90
61398;DHT22;47267;48.130;-2.040;2023-04-03T17:09:01;21.00;50.90
61398;DHT22;47267;48.130;-2.040;2023-04-03T17:11:27;21.00;50.90
61398;DHT22;47267;48.130;-2.040;2023-04-03T17:13:53;21.00;50.90
61398;DHT22;47267;48.130;-2.040;2023-04-03T17:16:19;21.00;50.90
61398;DHT22;47267;48.130;-2.040;2023-04-03T17:18:45;21.00;50.80
61398;DHT22;47267;48.130;-2.040;2023-04-03T17:21:12;21.00;50.80
61398;DHT22;47267;48.130;-2.040;2023-04-03T17:23:39;21.00;50.80